Lufkin, TX

10:57 PM CDT on September 23, 2014 (GMT -0500)
Mangham Regional | Change Station
CLOSE
Current Station
Airport
Location: Nacogdoches,
Elevation: 354 ft
Nearby Weather Stations

Elev 354 ft 31.58 °N, 94.71 °W | Updated 22 minutes ago

Partly Cloudy
Partly Cloudy
59 °F
Feels Like 59 °F
N
0
Wind Variable Wind from North

Today
High -- | Low -- °F
--% Chance of Precip.
Yesterday
High -- | Low -- °F
Precip. -- in
7:07 AM 7:14 PM
Waning Crescent, 0% visible
Pressure 30.12 in
Visibility 10.0 miles
Clouds Clear
Dew Point 54 °F
Humidity 82%
Rainfall 0.00 in
Snow Depth Not available.
UV 0 out of 12
Pollen 10.30 out of 12
Air Quality Not available.
Flu Activity Not available.
METAR KOCH 240335Z AUTO 00000KT 10SM CLR 15/12 A3012 RMK AO1

More Conditions Fewer Conditions

Pressure 30.12 in
Visibility 10.0 miles
Clouds Clear
Dew Point 54 °F
Humidity 82%
Rainfall 0.00 in
Snow Depth Not available.
UV 0 out of 12
Pollen 10.30 out of 12
Air Quality Not available.
Flu Activity Not available.
METAR KOCH 240335Z AUTO 00000KT 10SM CLR 15/12 A3012 RMK AO1

More Conditions Fewer Conditions

10-Day Weather Forecast

Almanac

Astronomy

Sep. 23, 2014 Rise Set
Actual Time 7:07 AM CDT 7:14 PM CDT
Civil Twilight 6:43 AM CDT 7:38 PM CDT
Nautical Twilight 6:15 AM CDT 8:06 PM CDT
Astronomical Twilight 5:46 AM CDT 8:34 PM CDT
Moon 6:33 AM CDT (9/23) 6:54 PM CDT (9/23)
Length of Visible Light 12h 54m
Length of Day
12h 06m
Tomorrow will be 1m 53s shorter.
Waning Crescent, 0% of the Moon is Illuminated
Today
Waning Crescent
Sep 24
New
Oct 1
First Quarter
Oct 8
Full
Oct 15
Last Quarter

Today's Extremes

State Highs State Lows

Community

WunderPhotos

Upload Photos

1,755,878 photos uploaded!

WunderBlogs® & News

Nearby

Snow Depth

Station Depth Elevation
No new snow has been reported.

Earthquake Activity

City Distance Mag. Time & Date
No recent earthquake activity has been reported nearby.
Minimum magnitude displayed is 2.5.

Coastal Water Temperatures

Place Temperature
No Stations Reporting

Nearby Weather Stations